Bafra, Turkey
Current Conditions -  °F | °C
As of 8:50 PM on Friday 24 Oct 2014 (Local Time) from LTFH Reporting Station
Broken Clouds Broken Clouds  
Wind Chill: 63°   Ceiling: 10000
Heat Index: 63°   Visibility: 6mi
Dew Point: 61°   Wind: 8mph
Humidity: 94%   Direction: 280°W
Pressure: 30"   Gusts: NA
Location:  41.57°N, 35.89°E
Report Text: LTFH 241750Z 28007KT 9999 FEW015 SCT033 BKN100 17/16 Q1016 NOSIG
Loading
Personal Weather Stations






























Interactive Weather Map
Tropical Storm Tracking
New forecast layout! Learn more

10-Day Weather Forecast

Advertisements
Track Severe Weather on mobile